Time;durP1;ratioP1;P1;durP2;ratioP2;P2;SDS_P1;SDS_P2;PMS_P1;PMS_P2;Temp;Humidity;BMP_temperature;BMP_pressure;BME280_temperature;BME280_humidity;BME280_pressure;Samples;Min_cycle;Max_cycle;Signal;HPM_P1;HPM_P2
2022/03/17 00:02:17;;;;;;;;;;;10.70;99.90;;;;;;5132196;27;19923;-85
2022/03/17 00:04:43;;;;;;;;;;;10.60;99.90;;;;;;5123247;27;19930;-85
2022/03/17 00:07:08;;;;;;;;;;;10.60;99.90;;;;;;5135835;27;20279;-86
2022/03/17 00:09:34;;;;;;;;;;;10.60;99.90;;;;;;5120707;27;19975;-86
2022/03/17 00:11:59;;;;;;;;;;;10.60;99.90;;;;;;5120514;27;19930;-86
2022/03/17 00:14:25;;;;;;;;;;;10.60;99.90;;;;;;5122055;27;20390;-85
2022/03/17 00:16:51;;;;;;;;;;;10.60;99.90;;;;;;5136012;27;19972;-85
2022/03/17 00:19:16;;;;;;;;;;;10.60;99.90;;;;;;5152583;27;19923;-86
2022/03/17 00:21:42;;;;;;;;;;;10.60;99.90;;;;;;5125202;27;20019;-85
2022/03/17 00:24:07;;;;;;;;;;;10.60;99.90;;;;;;5135989;27;20354;-86
2022/03/17 00:26:34;;;;;;;;;;;10.60;99.90;;;;;;5107865;27;19966;-85
2022/03/17 00:29:02;;;;;;;;;;;10.60;99.90;;;;;;5136098;27;19923;-84
2022/03/17 00:31:28;;;;;;;;;;;10.60;99.90;;;;;;5119784;27;19926;-85
2022/03/17 00:33:54;;;;;;;;;;;10.60;99.90;;;;;;5144698;27;19923;-85
2022/03/17 00:36:19;;;;;;;;;;;10.60;99.90;;;;;;5134771;27;20362;-85
2022/03/17 00:38:45;;;;;;;;;;;10.50;99.90;;;;;;5121412;27;19978;-85
2022/03/17 00:41:11;;;;;;;;;;;10.50;99.90;;;;;;5123861;27;19923;-85
2022/03/17 00:43:37;;;;;;;;;;;10.50;99.90;;;;;;5136532;27;19927;-85
2022/03/17 00:46:02;;;;;;;;;;;10.50;99.90;;;;;;5127446;27;19931;-85
2022/03/17 00:48:29;;;;;;;;;;;10.50;99.90;;;;;;5130203;27;19923;-85
2022/03/17 00:50:55;;;;;;;;;;;10.50;99.90;;;;;;5123754;27;19923;-85
2022/03/17 00:53:20;;;;;;;;;;;10.50;99.90;;;;;;5134939;27;19968;-85
2022/03/17 00:55:46;;;;;;;;;;;10.60;99.90;;;;;;5155604;27;20011;-85
2022/03/17 00:58:12;;;;;;;;;;;10.60;99.90;;;;;;5146678;27;19930;-85
2022/03/17 01:00:38;;;;;;;;;;;10.60;99.90;;;;;;5133374;27;20435;-85
2022/03/17 01:03:05;;;;;;;;;;;10.60;99.90;;;;;;5143216;27;19922;-85
2022/03/17 01:05:30;;;;;;;;;;;10.60;99.90;;;;;;5133228;27;19927;-85
2022/03/17 01:07:56;;;;;;;;;;;10.60;99.90;;;;;;5141275;27;19930;-85
2022/03/17 01:10:22;;;;;;;;;;;10.70;99.90;;;;;;5140038;27;19923;-86
2022/03/17 01:12:48;;;;;;;;;;;10.70;99.90;;;;;;5143635;27;20328;-86
2022/03/17 01:15:14;;;;;;;;;;;10.70;99.90;;;;;;5132046;27;19927;-86
2022/03/17 01:17:40;;;;;;;;;;;10.70;99.90;;;;;;5131099;27;20766;-85
2022/03/17 01:20:06;;;;;;;;;;;10.60;99.90;;;;;;5131277;27;20023;-86
2022/03/17 01:22:32;;;;;;;;;;;10.60;99.90;;;;;;5158390;27;19944;-85
2022/03/17 01:24:57;;;;;;;;;;;10.60;99.90;;;;;;5127858;27;19926;-86
2022/03/17 01:27:23;;;;;;;;;;;10.60;99.90;;;;;;5110064;27;20282;-85
2022/03/17 01:29:49;;;;;;;;;;;10.60;99.90;;;;;;5147886;27;19971;-86
2022/03/17 01:32:15;;;;;;;;;;;10.50;99.90;;;;;;5133667;27;19987;-85
2022/03/17 01:34:40;;;;;;;;;;;10.50;99.90;;;;;;5121363;27;20430;-85
2022/03/17 01:37:06;;;;;;;;;;;10.50;99.90;;;;;;5125163;27;19974;-86
2022/03/17 01:39:32;;;;;;;;;;;10.50;99.90;;;;;;5140020;27;20177;-85
2022/03/17 01:41:57;;;;;;;;;;;10.40;99.90;;;;;;5129039;27;19923;-85
2022/03/17 01:44:23;;;;;;;;;;;10.40;99.90;;;;;;5142112;27;19973;-86
2022/03/17 01:49:37;;;;;;;;;;;10.40;99.90;;;;;;5140404;27;20406;-85
2022/03/17 01:52:03;;;;;;;;;;;10.40;99.90;;;;;;5116217;27;19928;-85
2022/03/17 01:54:28;;;;;;;;;;;10.30;99.90;;;;;;5133117;27;19972;-86
2022/03/17 01:56:54;;;;;;;;;;;10.30;99.90;;;;;;5106658;27;20013;-85
2022/03/17 01:59:21;;;;;;;;;;;10.20;99.90;;;;;;5128558;27;19930;-85
2022/03/17 02:01:48;;;;;;;;;;;10.20;99.90;;;;;;5141785;27;20290;-85
2022/03/17 02:04:13;;;;;;;;;;;10.20;99.90;;;;;;5131007;27;19923;-85
2022/03/17 02:06:40;;;;;;;;;;;10.10;99.90;;;;;;5150188;27;19946;-85
2022/03/17 02:09:05;;;;;;;;;;;10.10;99.90;;;;;;5144126;27;19931;-85
2022/03/17 02:14:20;;;;;;;;;;;10.10;99.90;;;;;;5130558;27;20386;-84
2022/03/17 02:16:45;;;;;;;;;;;10.10;99.90;;;;;;5125429;27;20125;-85
2022/03/17 02:19:12;;;;;;;;;;;10.10;99.90;;;;;;5141242;27;20406;-84
2022/03/17 02:21:39;;;;;;;;;;;10.10;99.90;;;;;;5134439;27;19922;-85
2022/03/17 02:26:50;;;;;;;;;;;10.10;99.90;;;;;;5153907;27;19929;-86
2022/03/17 02:29:15;;;;;;;;;;;10.00;99.90;;;;;;5128291;27;19930;-85
2022/03/17 02:31:41;;;;;;;;;;;10.00;99.90;;;;;;5126249;27;19930;-85
2022/03/17 02:34:06;;;;;;;;;;;10.00;99.90;;;;;;5105704;27;19923;-85
2022/03/17 02:36:32;;;;;;;;;;;10.00;99.90;;;;;;5107925;27;19930;-85
2022/03/17 02:38:57;;;;;;;;;;;10.00;99.90;;;;;;5120893;27;19931;-85
2022/03/17 02:41:23;;;;;;;;;;;9.90;99.90;;;;;;5117656;27;19949;-86
2022/03/17 02:43:52;;;;;;;;;;;10.00;99.90;;;;;;5118020;27;19935;-86
2022/03/17 02:46:18;;;;;;;;;;;9.90;99.90;;;;;;5144387;27;19923;-86
2022/03/17 02:48:43;;;;;;;;;;;9.90;99.90;;;;;;5135008;27;19930;-86
2022/03/17 02:51:10;;;;;;;;;;;9.90;99.90;;;;;;5136001;27;19923;-86
2022/03/17 02:53:35;;;;;;;;;;;9.90;99.90;;;;;;5132033;27;20398;-85
2022/03/17 02:56:01;;;;;;;;;;;9.90;99.90;;;;;;5131477;27;19923;-85
2022/03/17 02:58:26;;;;;;;;;;;9.90;99.90;;;;;;5133980;27;20332;-85
2022/03/17 03:00:52;;;;;;;;;;;9.90;99.90;;;;;;5121438;27;19924;-85
2022/03/17 03:03:18;;;;;;;;;;;9.90;99.90;;;;;;5134457;27;19923;-86
2022/03/17 03:05:43;;;;;;;;;;;9.90;99.90;;;;;;5132731;27;20260;-86
2022/03/17 03:08:09;;;;;;;;;;;10.00;99.90;;;;;;5134168;27;20364;-85
2022/03/17 03:10:35;;;;;;;;;;;9.90;99.90;;;;;;5131768;27;20022;-84
2022/03/17 03:13:00;;;;;;;;;;;9.90;99.90;;;;;;5154181;27;19927;-85
2022/03/17 03:15:26;;;;;;;;;;;9.90;99.90;;;;;;5131341;27;19923;-85
2022/03/17 03:17:52;;;;;;;;;;;9.90;99.90;;;;;;5133565;27;20118;-84
2022/03/17 03:20:17;;;;;;;;;;;9.90;99.90;;;;;;5134993;27;19949;-83
2022/03/17 03:22:43;;;;;;;;;;;9.80;99.90;;;;;;5119441;27;19923;-84
2022/03/17 03:25:09;;;;;;;;;;;9.70;99.90;;;;;;5148941;27;19923;-83
2022/03/17 03:27:35;;;;;;;;;;;9.70;99.90;;;;;;5134856;27;19929;-84
2022/03/17 03:30:01;;;;;;;;;;;9.70;99.90;;;;;;5133975;27;19927;-84
2022/03/17 03:32:29;;;;;;;;;;;9.70;99.90;;;;;;5132588;27;20387;-82
2022/03/17 03:34:55;;;;;;;;;;;9.60;99.90;;;;;;5136725;27;20622;-83
2022/03/17 03:37:23;;;;;;;;;;;9.60;99.90;;;;;;5132455;27;19933;-84
2022/03/17 03:39:50;;;;;;;;;;;9.60;99.90;;;;;;5157667;27;20006;-84
2022/03/17 03:42:15;;;;;;;;;;;9.60;99.90;;;;;;5138717;27;20022;-84
2022/03/17 03:44:41;;;;;;;;;;;9.50;99.90;;;;;;5119717;27;20017;-83
2022/03/17 03:47:07;;;;;;;;;;;9.50;99.90;;;;;;5143125;27;19937;-84
2022/03/17 03:49:33;;;;;;;;;;;9.50;99.90;;;;;;5119087;27;19923;-84
2022/03/17 03:51:59;;;;;;;;;;;9.50;99.90;;;;;;5118996;27;19923;-84
2022/03/17 03:54:24;;;;;;;;;;;9.50;99.90;;;;;;5136651;27;19923;-84
2022/03/17 03:56:54;;;;;;;;;;;9.50;99.90;;;;;;5137495;27;19938;-84
2022/03/17 03:59:21;;;;;;;;;;;9.40;99.90;;;;;;5155649;27;19929;-83
2022/03/17 04:01:47;;;;;;;;;;;9.40;99.90;;;;;;5156982;27;19929;-83
2022/03/17 04:04:17;;;;;;;;;;;9.40;99.90;;;;;;5157181;27;20274;-83
2022/03/17 04:06:47;;;;;;;;;;;9.50;99.90;;;;;;5144254;27;20370;-84
2022/03/17 04:09:20;;;;;;;;;;;9.50;99.90;;;;;;5156660;27;20374;-83
2022/03/17 04:11:45;;;;;;;;;;;9.30;99.90;;;;;;5156058;27;19927;-83
2022/03/17 04:14:12;;;;;;;;;;;9.10;99.90;;;;;;5157367;27;19968;-83
2022/03/17 04:16:37;;;;;;;;;;;8.90;99.90;;;;;;5140135;27;20344;-83
2022/03/17 04:19:03;;;;;;;;;;;8.70;99.90;;;;;;5150600;27;19948;-82
2022/03/17 04:21:30;;;;;;;;;;;8.60;99.90;;;;;;5156220;27;19923;-82
2022/03/17 04:23:55;;;;;;;;;;;8.50;99.90;;;;;;5156525;27;19939;-81
2022/03/17 04:26:21;;;;;;;;;;;8.40;99.90;;;;;;5136992;27;20002;-82
2022/03/17 04:28:46;;;;;;;;;;;8.40;99.90;;;;;;5104623;27;19923;-81
2022/03/17 04:31:13;;;;;;;;;;;8.40;99.90;;;;;;5137117;27;19923;-81
2022/03/17 04:33:38;;;;;;;;;;;8.30;99.90;;;;;;5135497;27;20398;-84
2022/03/17 04:36:05;;;;;;;;;;;8.30;99.90;;;;;;5150226;27;19966;-83
2022/03/17 04:38:31;;;;;;;;;;;8.20;99.90;;;;;;5131896;27;19927;-82
2022/03/17 04:40:57;;;;;;;;;;;8.20;99.90;;;;;;5126732;27;19922;-86
2022/03/17 04:43:23;;;;;;;;;;;8.10;99.90;;;;;;5134813;27;19967;-86
2022/03/17 04:45:49;;;;;;;;;;;8.10;99.90;;;;;;5135848;27;19932;-85
2022/03/17 04:48:15;;;;;;;;;;;8.10;99.90;;;;;;5135650;27;19926;-84
2022/03/17 04:50:41;;;;;;;;;;;8.00;99.90;;;;;;5136170;27;19927;-85
2022/03/17 04:55:51;;;;;;;;;;;7.90;99.90;;;;;;5142888;27;20427;-83
2022/03/17 04:58:16;;;;;;;;;;;7.80;99.90;;;;;;5124137;27;19927;-84
2022/03/17 05:00:43;;;;;;;;;;;7.90;99.90;;;;;;5141089;27;20260;-85
2022/03/17 05:03:08;;;;;;;;;;;7.80;99.90;;;;;;5139529;27;19923;-83
2022/03/17 05:05:34;;;;;;;;;;;7.80;99.90;;;;;;5152809;27;19930;-84
2022/03/17 05:08:00;;;;;;;;;;;7.80;99.90;;;;;;5119074;27;20029;-85
2022/03/17 05:10:28;;;;;;;;;;;7.80;99.90;;;;;;5128468;27;19953;-84
2022/03/17 05:12:54;;;;;;;;;;;7.80;99.90;;;;;;5135437;27;19926;-84
2022/03/17 05:15:20;;;;;;;;;;;7.70;99.90;;;;;;5147408;27;19923;-83
2022/03/17 05:17:47;;;;;;;;;;;7.70;99.90;;;;;;5156894;27;19951;-85
2022/03/17 05:20:13;;;;;;;;;;;7.70;99.90;;;;;;5132994;27;20006;-83
2022/03/17 05:22:39;;;;;;;;;;;7.60;99.90;;;;;;5137085;27;19989;-83
2022/03/17 05:25:06;;;;;;;;;;;7.60;99.90;;;;;;5147184;27;20401;-84
2022/03/17 05:27:31;;;;;;;;;;;7.60;99.90;;;;;;5109408;27;20393;-85
2022/03/17 05:29:57;;;;;;;;;;;7.60;99.90;;;;;;5153769;27;19923;-82
2022/03/17 05:32:22;;;;;;;;;;;7.60;99.90;;;;;;5131576;27;19923;-83
2022/03/17 05:34:48;;;;;;;;;;;7.60;99.90;;;;;;5100793;27;20381;-84
2022/03/17 05:37:13;;;;;;;;;;;7.70;99.90;;;;;;5144308;27;20274;-83
2022/03/17 05:39:40;;;;;;;;;;;7.70;99.90;;;;;;5127213;27;19931;-84
2022/03/17 05:42:06;;;;;;;;;;;7.60;99.90;;;;;;5143907;27;19973;-84
2022/03/17 05:44:32;;;;;;;;;;;7.60;99.90;;;;;;5139455;27;19931;-83
2022/03/17 05:46:58;;;;;;;;;;;7.60;99.90;;;;;;5139306;27;19980;-81
2022/03/17 05:49:24;;;;;;;;;;;7.70;99.90;;;;;;5126305;27;20017;-82
2022/03/17 05:51:49;;;;;;;;;;;7.70;99.90;;;;;;5156529;27;19930;-84
2022/03/17 05:54:15;;;;;;;;;;;7.60;99.90;;;;;;5107299;27;19931;-82
2022/03/17 05:56:40;;;;;;;;;;;7.60;99.90;;;;;;5143604;27;19933;-86
2022/03/17 05:59:06;;;;;;;;;;;7.60;99.90;;;;;;5133716;27;19923;-85
2022/03/17 06:01:31;;;;;;;;;;;7.60;99.90;;;;;;5124211;27;20363;-82
2022/03/17 06:03:57;;;;;;;;;;;7.60;99.90;;;;;;5155095;27;19972;-82
2022/03/17 06:06:23;;;;;;;;;;;7.60;99.90;;;;;;5142429;27;19947;-81
2022/03/17 06:08:48;;;;;;;;;;;7.50;99.90;;;;;;5142038;27;19970;-82
2022/03/17 06:11:14;;;;;;;;;;;7.50;99.90;;;;;;5135923;27;19930;-82
2022/03/17 06:13:39;;;;;;;;;;;7.60;99.90;;;;;;5150886;27;20260;-84
2022/03/17 06:16:06;;;;;;;;;;;7.60;99.90;;;;;;5126949;27;19970;-85
2022/03/17 06:18:31;;;;;;;;;;;7.50;99.90;;;;;;5125734;27;19923;-84
2022/03/17 06:20:57;;;;;;;;;;;7.50;99.90;;;;;;5125484;27;19923;-82
2022/03/17 06:23:22;;;;;;;;;;;7.50;99.90;;;;;;5129056;27;20379;-83
2022/03/17 06:25:48;;;;;;;;;;;7.50;99.90;;;;;;5127093;27;20335;-82
2022/03/17 06:28:15;;;;;;;;;;;7.50;99.90;;;;;;5138288;27;19930;-84
2022/03/17 06:30:41;;;;;;;;;;;7.60;99.90;;;;;;5104690;27;20014;-83
2022/03/17 06:33:07;;;;;;;;;;;7.50;99.90;;;;;;5130230;27;20071;-83
2022/03/17 06:35:33;;;;;;;;;;;7.60;99.90;;;;;;5133286;27;19930;-85
2022/03/17 06:37:59;;;;;;;;;;;7.60;99.90;;;;;;5132426;27;19923;-83
2022/03/17 06:40:26;;;;;;;;;;;7.60;99.90;;;;;;5132739;27;19969;-82
2022/03/17 06:42:52;;;;;;;;;;;7.60;99.90;;;;;;5147215;27;20331;-80
2022/03/17 06:45:17;;;;;;;;;;;7.60;99.90;;;;;;5146657;27;20011;-83
2022/03/17 06:47:43;;;;;;;;;;;7.50;99.90;;;;;;5146421;27;20053;-82
2022/03/17 06:50:10;;;;;;;;;;;7.50;99.90;;;;;;5158181;27;19923;-84
2022/03/17 06:52:36;;;;;;;;;;;7.40;99.90;;;;;;5157673;27;19931;-81
2022/03/17 06:55:02;;;;;;;;;;;7.50;99.90;;;;;;5136452;27;19923;-79
2022/03/17 06:57:28;;;;;;;;;;;7.40;99.90;;;;;;5120977;27;20355;-83
2022/03/17 06:59:53;;;;;;;;;;;7.50;99.90;;;;;;5152485;27;19929;-80
2022/03/17 07:02:19;;;;;;;;;;;7.50;99.90;;;;;;5148556;27;19922;-79
2022/03/17 07:04:45;;;;;;;;;;;7.50;99.90;;;;;;5130901;27;19970;-78
2022/03/17 07:07:11;;;;;;;;;;;7.50;99.90;;;;;;5137454;27;20021;-81
2022/03/17 07:09:36;;;;;;;;;;;7.50;99.90;;;;;;5137352;27;20386;-83
2022/03/17 07:12:03;;;;;;;;;;;7.50;99.90;;;;;;5137005;27;19968;-81
2022/03/17 07:14:28;;;;;;;;;;;7.50;99.90;;;;;;5120408;27;19923;-78
2022/03/17 07:16:54;;;;;;;;;;;7.50;99.90;;;;;;5126607;27;19934;-78
2022/03/17 07:19:20;;;;;;;;;;;7.50;99.90;;;;;;5119796;27;19931;-81
2022/03/17 07:21:45;;;;;;;;;;;7.50;99.90;;;;;;5137175;27;19933;-80
2022/03/17 07:24:11;;;;;;;;;;;7.50;99.90;;;;;;5136883;27;19934;-82
2022/03/17 07:26:37;;;;;;;;;;;7.50;99.90;;;;;;5120079;27;20017;-82
2022/03/17 07:29:03;;;;;;;;;;;7.50;99.90;;;;;;5140166;27;19923;-79
2022/03/17 07:31:29;;;;;;;;;;;7.50;99.90;;;;;;5151199;27;19923;-82
2022/03/17 07:33:54;;;;;;;;;;;7.50;99.90;;;;;;5144813;27;19930;-78
2022/03/17 07:36:21;;;;;;;;;;;7.50;99.90;;;;;;5121338;27;19926;-79
2022/03/17 07:38:47;;;;;;;;;;;7.60;99.90;;;;;;5147718;27;19930;-80
2022/03/17 07:41:13;;;;;;;;;;;7.50;99.90;;;;;;5144154;27;19927;-82
2022/03/17 07:43:40;;;;;;;;;;;7.50;99.90;;;;;;5143826;27;19923;-78
2022/03/17 07:46:06;;;;;;;;;;;7.60;99.90;;;;;;5122345;27;20018;-81
2022/03/17 07:48:32;;;;;;;;;;;7.60;99.90;;;;;;5150416;27;20010;-81
2022/03/17 07:50:57;;;;;;;;;;;7.50;99.90;;;;;;5157787;27;19923;-79
2022/03/17 07:53:23;;;;;;;;;;;7.60;99.90;;;;;;5119410;27;19927;-81
2022/03/17 07:55:54;;;;;;;;;;;7.50;99.90;;;;;;5119594;27;19923;-81
2022/03/17 07:58:20;;;;;;;;;;;7.50;99.90;;;;;;5138560;27;19929;-79
2022/03/17 08:00:46;;;;;;;;;;;7.50;99.90;;;;;;5157304;27;19934;-81
2022/03/17 08:03:12;;;;;;;;;;;7.60;99.90;;;;;;5156917;27;19923;-79
2022/03/17 08:05:37;;;;;;;;;;;7.60;99.90;;;;;;5120939;27;19926;-84
2022/03/17 08:08:04;;;;;;;;;;;7.60;99.90;;;;;;5142692;27;19923;-80
2022/03/17 08:10:29;;;;;;;;;;;7.50;99.90;;;;;;5119474;27;20348;-86
2022/03/17 08:12:55;;;;;;;;;;;7.50;99.90;;;;;;5136561;27;19973;-80
2022/03/17 08:15:21;;;;;;;;;;;7.60;99.90;;;;;;5137913;27;19946;-84
2022/03/17 08:17:46;;;;;;;;;;;7.60;99.90;;;;;;5118010;27;19923;-83
2022/03/17 08:20:12;;;;;;;;;;;7.60;99.90;;;;;;5137968;27;20373;-81
2022/03/17 08:22:38;;;;;;;;;;;7.70;99.90;;;;;;5134669;27;20309;-80
2022/03/17 08:25:04;;;;;;;;;;;7.70;99.90;;;;;;5122270;27;19968;-83
2022/03/17 08:27:30;;;;;;;;;;;7.70;99.90;;;;;;5146502;27;19930;-80
2022/03/17 08:29:55;;;;;;;;;;;7.70;99.90;;;;;;5129733;27;19952;-80
2022/03/17 08:32:21;;;;;;;;;;;7.70;99.90;;;;;;5116091;27;19930;-80
2022/03/17 08:34:47;;;;;;;;;;;7.70;99.90;;;;;;5132540;27;19930;-79
2022/03/17 08:37:12;;;;;;;;;;;7.80;99.90;;;;;;5135707;27;19924;-79
2022/03/17 08:39:38;;;;;;;;;;;7.80;99.90;;;;;;5119677;27;20376;-78
2022/03/17 08:42:04;;;;;;;;;;;7.90;99.90;;;;;;5136602;27;19924;-78
2022/03/17 08:44:29;;;;;;;;;;;7.90;99.90;;;;;;5134930;27;19999;-81
2022/03/17 08:49:39;;;;;;;;;;;8.00;99.90;;;;;;5137849;27;20378;-80
2022/03/17 08:52:05;;;;;;;;;;;8.10;99.90;;;;;;5126184;28;19927;-79
2022/03/17 08:54:34;;;;;;;;;;;8.20;99.90;;;;;;5114982;28;20411;-79
2022/03/17 08:57:01;;;;;;;;;;;8.40;99.90;;;;;;5132774;27;20415;-80
2022/03/17 08:59:30;;;;;;;;;;;8.50;99.90;;;;;;5115459;28;19924;-80
2022/03/17 09:01:59;;;;;;;;;;;8.50;99.90;;;;;;5132722;27;20395;-79
2022/03/17 09:04:26;;;;;;;;;;;8.50;99.90;;;;;;5132703;28;19923;-80
2022/03/17 09:06:51;;;;;;;;;;;8.40;99.90;;;;;;5115976;28;19982;-80
2022/03/17 09:09:17;;;;;;;;;;;8.40;99.90;;;;;;5132497;28;20383;-79
2022/03/17 09:11:44;;;;;;;;;;;8.50;99.90;;;;;;5116703;27;19923;-82
2022/03/17 09:14:10;;;;;;;;;;;8.50;99.90;;;;;;5122465;27;19924;-85
2022/03/17 09:16:35;;;;;;;;;;;8.50;99.90;;;;;;5124538;27;19984;-83
2022/03/17 09:19:01;;;;;;;;;;;8.50;99.90;;;;;;5125023;27;19927;-79
2022/03/17 09:21:27;;;;;;;;;;;8.60;99.90;;;;;;5136472;27;20402;-81
2022/03/17 09:23:53;;;;;;;;;;;8.60;99.90;;;;;;5117714;27;19930;-84
2022/03/17 09:26:19;;;;;;;;;;;8.70;99.90;;;;;;5136576;27;19924;-82
2022/03/17 09:28:45;;;;;;;;;;;8.70;99.90;;;;;;5136076;27;20383;-81
2022/03/17 09:31:11;;;;;;;;;;;8.70;99.90;;;;;;5135006;27;20364;-84
2022/03/17 09:33:36;;;;;;;;;;;8.70;99.90;;;;;;5137626;27;19929;-81
2022/03/17 09:36:02;;;;;;;;;;;8.90;99.90;;;;;;5144389;27;20436;-81
2022/03/17 09:38:28;;;;;;;;;;;8.90;99.90;;;;;;5142289;27;20366;-83
2022/03/17 09:40:53;;;;;;;;;;;8.90;99.90;;;;;;5142113;27;19923;-82
2022/03/17 09:43:19;;;;;;;;;;;9.00;99.90;;;;;;5140704;27;19924;-81
2022/03/17 09:45:53;;;;;;;;;;;9.00;99.90;;;;;;5121488;27;19923;-83
2022/03/17 09:48:20;;;;;;;;;;;9.00;99.90;;;;;;5127757;27;20372;-85
2022/03/17 09:50:46;;;;;;;;;;;9.00;99.90;;;;;;5117087;27;20015;-82
2022/03/17 09:53:11;;;;;;;;;;;9.00;99.90;;;;;;5125528;27;19970;-84
2022/03/17 09:55:37;;;;;;;;;;;9.10;99.90;;;;;;5118682;27;19993;-80
2022/03/17 09:58:03;;;;;;;;;;;9.10;99.90;;;;;;5144841;27;19927;-83
2022/03/17 10:00:47;;;;;;;;;;;9.20;99.90;;;;;;5107309;27;20010;-82
2022/03/17 10:03:25;;;;;;;;;;;9.30;99.90;;;;;;5126382;27;19980;-80
2022/03/17 10:05:51;;;;;;;;;;;9.20;99.90;;;;;;5115211;27;19970;-84
2022/03/17 10:08:18;;;;;;;;;;;9.30;99.90;;;;;;5118393;27;19931;-79
2022/03/17 10:10:44;;;;;;;;;;;9.30;99.90;;;;;;5122969;27;19923;-82
2022/03/17 10:13:14;;;;;;;;;;;9.30;99.90;;;;;;5117477;27;20288;-83
2022/03/17 10:15:41;;;;;;;;;;;9.20;99.90;;;;;;5125002;27;20330;-82
2022/03/17 10:18:19;;;;;;;;;;;9.10;99.90;;;;;;5119741;27;19931;-83
2022/03/17 10:20:45;;;;;;;;;;;9.10;99.90;;;;;;5133009;27;19930;-83
2022/03/17 10:23:11;;;;;;;;;;;9.10;99.90;;;;;;5143844;27;20290;-83
2022/03/17 10:25:37;;;;;;;;;;;9.20;99.90;;;;;;5123823;27;19934;-84
2022/03/17 10:28:03;;;;;;;;;;;9.30;99.90;;;;;;5131247;27;19930;-80
2022/03/17 10:30:34;;;;;;;;;;;9.50;99.90;;;;;;5138095;27;19924;-83
2022/03/17 10:33:03;;;;;;;;;;;9.40;99.90;;;;;;5142162;27;19924;-81
2022/03/17 10:35:34;;;;;;;;;;;9.40;99.90;;;;;;5152218;27;19922;-80
2022/03/17 10:38:12;;;;;;;;;;;9.40;99.90;;;;;;5165998;27;19973;-79
2022/03/17 10:40:38;;;;;;;;;;;9.40;99.90;;;;;;5117944;27;19927;-80
2022/03/17 10:43:17;;;;;;;;;;;9.40;99.90;;;;;;5138818;27;20274;-81
2022/03/17 10:45:43;;;;;;;;;;;9.40;99.90;;;;;;5146502;27;19923;-80
2022/03/17 10:48:09;;;;;;;;;;;9.50;99.90;;;;;;5138140;27;19972;-82
2022/03/17 10:50:38;;;;;;;;;;;9.60;99.90;;;;;;5120709;27;19923;-80
2022/03/17 10:53:04;;;;;;;;;;;9.70;99.90;;;;;;5137443;27;19977;-80
2022/03/17 10:55:30;;;;;;;;;;;9.70;99.90;;;;;;5124461;27;19969;-83
2022/03/17 10:58:16;;;;;;;;;;;9.70;99.90;;;;;;5123276;27;20307;-81
2022/03/17 11:00:52;;;;;;;;;;;9.80;99.90;;;;;;5143614;27;19927;-79
2022/03/17 11:03:21;;;;;;;;;;;9.80;99.90;;;;;;5142010;27;19970;-83
2022/03/17 11:05:50;;;;;;;;;;;9.80;99.90;;;;;;5124239;27;19929;-81
2022/03/17 11:08:16;;;;;;;;;;;9.90;99.90;;;;;;5126415;27;19927;-80
2022/03/17 11:10:42;;;;;;;;;;;9.90;99.90;;;;;;5125734;27;19979;-80
2022/03/17 11:13:11;;;;;;;;;;;10.10;99.90;;;;;;5114700;27;19923;-84
2022/03/17 11:15:38;;;;;;;;;;;10.00;99.90;;;;;;5142565;27;19930;-80
2022/03/17 11:18:10;;;;;;;;;;;9.80;99.90;;;;;;5146373;27;20006;-81
2022/03/17 11:20:36;;;;;;;;;;;9.80;99.90;;;;;;5149038;27;19931;-82
2022/03/17 11:23:25;;;;;;;;;;;9.90;99.90;;;;;;5125040;27;20048;-79
2022/03/17 11:25:50;;;;;;;;;;;9.90;99.90;;;;;;5131968;27;19927;-80
2022/03/17 11:28:16;;;;;;;;;;;10.00;99.90;;;;;;5140366;27;20006;-82
2022/03/17 11:30:45;;;;;;;;;;;10.20;99.90;;;;;;5146854;27;19988;-81
2022/03/17 11:33:31;;;;;;;;;;;10.10;99.90;;;;;;5122864;27;19927;-80
2022/03/17 11:36:01;;;;;;;;;;;10.30;99.90;;;;;;5131024;27;19923;-80
2022/03/17 11:38:27;;;;;;;;;;;10.30;99.90;;;;;;5143237;27;19963;-76
2022/03/17 11:41:08;;;;;;;;;;;10.60;99.90;;;;;;5128410;27;20002;-78
2022/03/17 11:43:46;;;;;;;;;;;10.60;99.90;;;;;;5127382;27;19923;-78
2022/03/17 11:46:11;;;;;;;;;;;10.50;99.90;;;;;;5139783;27;19969;-78
2022/03/17 11:48:37;;;;;;;;;;;10.70;99.90;;;;;;5141159;27;19969;-78
2022/03/17 11:51:03;;;;;;;;;;;10.80;99.90;;;;;;5147932;27;19923;-79
2022/03/17 11:53:39;;;;;;;;;;;10.80;99.90;;;;;;5152038;27;19922;-80
2022/03/17 11:56:05;;;;;;;;;;;10.90;99.90;;;;;;5140173;27;19922;-79
2022/03/17 11:58:42;;;;;;;;;;;11.10;99.90;;;;;;5144640;27;19973;-79
2022/03/17 12:01:14;;;;;;;;;;;10.90;99.90;;;;;;5150632;27;19923;-80
2022/03/17 12:03:43;;;;;;;;;;;10.90;99.90;;;;;;5122125;27;19923;-80
2022/03/17 12:06:13;;;;;;;;;;;11.00;99.90;;;;;;5128191;27;19930;-79
2022/03/17 12:08:49;;;;;;;;;;;11.10;99.90;;;;;;5149669;27;19930;-79
2022/03/17 12:11:16;;;;;;;;;;;11.30;99.90;;;;;;5140180;27;20352;-79
2022/03/17 12:13:41;;;;;;;;;;;11.20;99.90;;;;;;5136822;27;20274;-79
2022/03/17 12:16:11;;;;;;;;;;;11.30;99.90;;;;;;5144938;27;19923;-80
2022/03/17 12:18:55;;;;;;;;;;;11.50;99.90;;;;;;5139833;27;20013;-78
2022/03/17 12:21:41;;;;;;;;;;;11.50;99.90;;;;;;5139681;27;19978;-80
2022/03/17 12:24:06;;;;;;;;;;;11.60;99.90;;;;;;5135509;27;19934;-79
2022/03/17 12:26:32;;;;;;;;;;;11.60;99.90;;;;;;5166671;27;19923;-78
2022/03/17 12:28:57;;;;;;;;;;;11.50;99.90;;;;;;5152135;27;20371;-79
2022/03/17 12:31:23;;;;;;;;;;;11.60;99.90;;;;;;5147205;27;20290;-80
2022/03/17 12:33:49;;;;;;;;;;;11.50;99.90;;;;;;5136275;27;19986;-79
2022/03/17 12:36:15;;;;;;;;;;;11.40;99.90;;;;;;5136320;27;19923;-81
2022/03/17 12:38:41;;;;;;;;;;;11.40;99.90;;;;;;5137783;27;20397;-80
2022/03/17 12:41:15;;;;;;;;;;;11.50;99.90;;;;;;5139792;27;20014;-78
2022/03/17 12:43:41;;;;;;;;;;;11.50;99.90;;;;;;5131790;27;20295;-79
2022/03/17 12:46:07;;;;;;;;;;;11.40;99.90;;;;;;5142585;27;20010;-79
2022/03/17 12:48:34;;;;;;;;;;;11.30;99.90;;;;;;5127008;27;20385;-79
2022/03/17 12:51:04;;;;;;;;;;;11.30;99.90;;;;;;5139802;27;19923;-80
2022/03/17 12:53:30;;;;;;;;;;;11.40;99.90;;;;;;5122236;27;19988;-82
2022/03/17 12:55:55;;;;;;;;;;;11.20;99.90;;;;;;5140642;27;19980;-78
2022/03/17 12:58:21;;;;;;;;;;;11.20;99.90;;;;;;5122532;27;19923;-81
2022/03/17 13:00:48;;;;;;;;;;;11.30;99.90;;;;;;5140030;27;19923;-78
2022/03/17 13:03:18;;;;;;;;;;;11.40;99.90;;;;;;5124515;27;19923;-79
2022/03/17 13:08:38;;;;;;;;;;;11.40;99.90;;;;;;5139867;27;19923;-79
2022/03/17 13:16:42;;;;;;;;;;;11.40;99.90;;;;;;5140159;27;19923;-80
2022/03/17 13:19:08;;;;;;;;;;;11.40;99.90;;;;;;5123081;27;19975;-84
2022/03/17 13:21:34;;;;;;;;;;;11.40;99.90;;;;;;5126788;27;19930;-79
2022/03/17 13:24:11;;;;;;;;;;;11.30;99.90;;;;;;5130475;27;19923;-78
2022/03/17 13:26:37;;;;;;;;;;;11.30;99.90;;;;;;5133946;27;19923;-79
2022/03/17 13:29:04;;;;;;;;;;;11.20;99.90;;;;;;5118646;27;19930;-80
2022/03/17 13:31:36;;;;;;;;;;;11.30;99.90;;;;;;5148501;27;19927;-79
2022/03/17 13:34:02;;;;;;;;;;;11.50;99.90;;;;;;5147243;27;20329;-80
2022/03/17 13:36:46;;;;;;;;;;;11.40;99.90;;;;;;5141697;27;19923;-80
2022/03/17 13:39:12;;;;;;;;;;;11.60;99.90;;;;;;5146270;27;20279;-79
2022/03/17 13:41:37;;;;;;;;;;;11.60;99.90;;;;;;5129624;27;19926;-82
2022/03/17 13:44:04;;;;;;;;;;;11.70;99.90;;;;;;5121048;27;19923;-82
2022/03/17 13:46:37;;;;;;;;;;;11.80;99.90;;;;;;5126436;27;19923;-80
2022/03/17 13:49:12;;;;;;;;;;;12.00;99.90;;;;;;5139175;27;19923;-81
2022/03/17 13:51:38;;;;;;;;;;;12.10;99.90;;;;;;5144102;27;19923;-81
2022/03/17 13:54:04;;;;;;;;;;;12.60;99.90;;;;;;5142287;27;19923;-81
2022/03/17 13:56:29;;;;;;;;;;;12.80;99.90;;;;;;5144734;27;20362;-81
2022/03/17 13:58:58;;;;;;;;;;;13.00;99.90;;;;;;5139367;27;19983;-82
2022/03/17 14:01:25;;;;;;;;;;;13.10;99.90;;;;;;5130756;27;19923;-81
2022/03/17 14:03:50;;;;;;;;;;;13.50;99.90;;;;;;5141494;27;20053;-81
2022/03/17 14:06:17;;;;;;;;;;;13.80;99.90;;;;;;5124566;27;19927;-81
2022/03/17 14:08:47;;;;;;;;;;;14.20;99.90;;;;;;5150461;27;19929;-80
2022/03/17 14:11:17;;;;;;;;;;;14.50;99.90;;;;;;5133419;27;20429;-82
2022/03/17 14:13:47;;;;;;;;;;;14.60;99.90;;;;;;5143768;27;20278;-81
2022/03/17 14:16:13;;;;;;;;;;;14.60;99.90;;;;;;5138777;27;19946;-83
2022/03/17 14:18:39;;;;;;;;;;;14.70;99.90;;;;;;5144595;27;20359;-84
2022/03/17 14:21:07;;;;;;;;;;;14.90;99.90;;;;;;5140575;27;19934;-82
2022/03/17 14:26:17;;;;;;;;;;;15.20;99.90;;;;;;5133628;27;19923;-84
2022/03/17 14:28:43;;;;;;;;;;;15.60;99.90;;;;;;5121317;27;19923;-82
2022/03/17 14:31:12;;;;;;;;;;;15.30;99.60;;;;;;5138241;27;19930;-81
2022/03/17 14:33:38;;;;;;;;;;;15.30;99.60;;;;;;5116658;27;20279;-80
2022/03/17 14:36:05;;;;;;;;;;;15.30;99.90;;;;;;5134790;27;19930;-83
2022/03/17 14:38:31;;;;;;;;;;;15.50;99.90;;;;;;5132592;27;19927;-82
2022/03/17 14:40:57;;;;;;;;;;;15.60;99.10;;;;;;5136361;27;19923;-82
2022/03/17 14:43:23;;;;;;;;;;;15.80;98.20;;;;;;5134100;27;20287;-82
2022/03/17 14:45:48;;;;;;;;;;;15.70;97.10;;;;;;5135747;27;19923;-81
2022/03/17 14:48:14;;;;;;;;;;;15.70;98.00;;;;;;5137346;27;19978;-82